Kelsay, Texas
Current Conditions -  °F | °C
As of 12:35 AM on Sunday 21 Dec 2014 (Local Time) from KBKS Reporting Station
Overcast Overcast  
Wind Chill: 55°   Ceiling: 1800
Heat Index: 55°   Visibility: 10mi
Dew Point: 50°   Wind: 7mph
Humidity: 85%   Direction: 30°NNE
Pressure: 30.16"   Gusts: NA
Location:  26.9826°N, 98.212°W
Report Text: KBKS 210635Z AUTO 03006KT 10SM OVC018 13/10 A3016 RMK AO1 T01270102
Loading
Personal Weather Stations






























Interactive Weather Map New forecast layout! Learn more

10-Day Weather Forecast

Advertisements
Track Severe Weather on mobile